sensor_id;sensor_type;location;lat;lon;timestamp;P1;durP1;ratioP1;P2;durP2;ratioP2
13204;SDS011;6667;52.634;9.226;2023-08-17T08:58:22;1.90;;;1.60;;
13204;SDS011;6667;52.634;9.226;2023-08-17T09:00:50;2.65;;;2.00;;
13204;SDS011;6667;52.634;9.226;2023-08-17T09:03:18;3.30;;;1.67;;
13204;SDS011;6667;52.634;9.226;2023-08-17T09:05:46;6.43;;;1.88;;
13204;SDS011;6667;52.634;9.226;2023-08-17T09:08:14;2.70;;;1.50;;
13204;SDS011;6667;52.634;9.226;2023-08-17T09:10:41;2.22;;;1.60;;
13204;SDS011;6667;52.634;9.226;2023-08-17T09:13:09;2.30;;;1.50;;
13204;SDS011;6667;52.634;9.226;2023-08-17T09:15:38;2.55;;;1.38;;
13204;SDS011;6667;52.634;9.226;2023-08-17T09:18:05;3.17;;;1.40;;
13204;SDS011;6667;52.634;9.226;2023-08-17T09:20:36;3.38;;;1.92;;
13204;SDS011;6667;52.634;9.226;2023-08-17T09:23:04;1.60;;;1.20;;
13204;SDS011;6667;52.634;9.226;2023-08-17T09:25:37;1.30;;;1.20;;
13204;SDS011;6667;52.634;9.226;2023-08-17T09:28:06;1.38;;;1.10;;
13204;SDS011;6667;52.634;9.226;2023-08-17T09:30:34;2.33;;;1.20;;
13204;SDS011;6667;52.634;9.226;2023-08-17T09:33:18;1.10;;;1.00;;
13204;SDS011;6667;52.634;9.226;2023-08-17T09:35:44;0.80;;;0.80;;
13204;SDS011;6667;52.634;9.226;2023-08-17T09:38:11;0.90;;;0.90;;
13204;SDS011;6667;52.634;9.226;2023-08-17T09:40:39;1.45;;;1.00;;
13204;SDS011;6667;52.634;9.226;2023-08-17T09:43:05;1.05;;;0.98;;
13204;SDS011;6667;52.634;9.226;2023-08-17T09:45:32;1.95;;;1.25;;
13204;SDS011;6667;52.634;9.226;2023-08-17T09:48:00;1.20;;;1.10;;
13204;SDS011;6667;52.634;9.226;2023-08-17T09:50:27;1.40;;;1.30;;
13204;SDS011;6667;52.634;9.226;2023-08-17T09:52:54;2.00;;;1.27;;
13204;SDS011;6667;52.634;9.226;2023-08-17T09:55:21;2.27;;;1.33;;
13204;SDS011;6667;52.634;9.226;2023-08-17T09:57:48;1.40;;;1.30;;
13204;SDS011;6667;52.634;9.226;2023-08-17T10:00:16;1.60;;;1.50;;
13204;SDS011;6667;52.634;9.226;2023-08-17T10:02:44;2.22;;;1.67;;
13204;SDS011;6667;52.634;9.226;2023-08-17T10:05:12;2.53;;;1.60;;
13204;SDS011;6667;52.634;9.226;2023-08-17T10:07:43;2.10;;;1.60;;
13204;SDS011;6667;52.634;9.226;2023-08-17T10:10:13;3.10;;;2.00;;
13204;SDS011;6667;52.634;9.226;2023-08-17T10:12:48;2.17;;;1.80;;
13204;SDS011;6667;52.634;9.226;2023-08-17T10:15:19;4.65;;;1.77;;
13204;SDS011;6667;52.634;9.226;2023-08-17T10:17:49;3.70;;;1.58;;
13204;SDS011;6667;52.634;9.226;2023-08-17T10:20:25;3.30;;;1.67;;
13204;SDS011;6667;52.634;9.226;2023-08-17T10:22:56;11.65;;;2.15;;
13204;SDS011;6667;52.634;9.226;2023-08-17T10:25:32;33.53;;;3.40;;
13204;SDS011;6667;52.634;9.226;2023-08-17T10:28:01;40.38;;;4.50;;
13204;SDS011;6667;52.634;9.226;2023-08-17T10:30:29;8.45;;;1.80;;
13204;SDS011;6667;52.634;9.226;2023-08-17T10:32:56;1.70;;;1.45;;
13204;SDS011;6667;52.634;9.226;2023-08-17T10:35:23;4.00;;;1.83;;
13204;SDS011;6667;52.634;9.226;2023-08-17T10:37:52;2.10;;;1.90;;
13204;SDS011;6667;52.634;9.226;2023-08-17T10:40:25;5.95;;;1.77;;
13204;SDS011;6667;52.634;9.226;2023-08-17T10:42:53;5.50;;;1.40;;
13204;SDS011;6667;52.634;9.226;2023-08-17T10:45:27;2.00;;;1.40;;
13204;SDS011;6667;52.634;9.226;2023-08-17T10:51:00;3.00;;;1.30;;
13204;SDS011;6667;52.634;9.226;2023-08-17T10:53:34;3.83;;;1.43;;
13204;SDS011;6667;52.634;9.226;2023-08-17T10:56:06;1.52;;;1.42;;
13204;SDS011;6667;52.634;9.226;2023-08-17T10:58:33;2.50;;;1.48;;
13204;SDS011;6667;52.634;9.226;2023-08-17T11:01:00;1.30;;;1.20;;
13204;SDS011;6667;52.634;9.226;2023-08-17T11:03:27;2.53;;;1.57;;
13204;SDS011;6667;52.634;9.226;2023-08-17T11:05:54;4.80;;;1.27;;
13204;SDS011;6667;52.634;9.226;2023-08-17T11:08:22;3.67;;;1.30;;
13204;SDS011;6667;52.634;9.226;2023-08-17T11:10:58;1.58;;;1.40;;
13204;SDS011;6667;52.634;9.226;2023-08-17T11:13:29;1.58;;;1.48;;
13204;SDS011;6667;52.634;9.226;2023-08-17T11:15:57;3.63;;;1.33;;
13204;SDS011;6667;52.634;9.226;2023-08-17T11:18:25;1.73;;;1.30;;
13204;SDS011;6667;52.634;9.226;2023-08-17T11:20:52;1.60;;;1.17;;
13204;SDS011;6667;52.634;9.226;2023-08-17T11:23:19;1.70;;;1.50;;
13204;SDS011;6667;52.634;9.226;2023-08-17T11:25:46;2.70;;;1.48;;
13204;SDS011;6667;52.634;9.226;2023-08-17T11:28:15;1.98;;;1.17;;
13204;SDS011;6667;52.634;9.226;2023-08-17T11:30:42;1.40;;;1.30;;
13204;SDS011;6667;52.634;9.226;2023-08-17T11:33:08;1.67;;;1.20;;
13204;SDS011;6667;52.634;9.226;2023-08-17T11:35:36;1.60;;;1.15;;
13204;SDS011;6667;52.634;9.226;2023-08-17T11:38:04;1.98;;;1.30;;
13204;SDS011;6667;52.634;9.226;2023-08-17T11:40:31;1.48;;;1.38;;
13204;SDS011;6667;52.634;9.226;2023-08-17T11:42:58;1.33;;;1.23;;
13204;SDS011;6667;52.634;9.226;2023-08-17T11:45:26;1.35;;;1.20;;
13204;SDS011;6667;52.634;9.226;2023-08-17T11:47:53;2.05;;;1.38;;
13204;SDS011;6667;52.634;9.226;2023-08-17T11:50:20;1.30;;;1.20;;
13204;SDS011;6667;52.634;9.226;2023-08-17T11:52:47;1.90;;;1.15;;
13204;SDS011;6667;52.634;9.226;2023-08-17T11:55:15;1.52;;;1.20;;
13204;SDS011;6667;52.634;9.226;2023-08-17T11:57:44;2.17;;;1.60;;
13204;SDS011;6667;52.634;9.226;2023-08-17T12:00:16;1.30;;;1.20;;
13204;SDS011;6667;52.634;9.226;2023-08-17T12:02:45;2.13;;;1.30;;
13204;SDS011;6667;52.634;9.226;2023-08-17T12:05:13;2.05;;;1.48;;
13204;SDS011;6667;52.634;9.226;2023-08-17T12:07:39;1.20;;;1.10;;
13204;SDS011;6667;52.634;9.226;2023-08-17T12:10:07;1.40;;;1.30;;
13204;SDS011;6667;52.634;9.226;2023-08-17T12:12:36;1.95;;;1.33;;
13204;SDS011;6667;52.634;9.226;2023-08-17T12:15:04;1.38;;;1.27;;
13204;SDS011;6667;52.634;9.226;2023-08-17T12:17:32;3.00;;;1.70;;
13204;SDS011;6667;52.634;9.226;2023-08-17T12:20:00;2.00;;;1.80;;
13204;SDS011;6667;52.634;9.226;2023-08-17T12:22:27;2.45;;;1.70;;
13204;SDS011;6667;52.634;9.226;2023-08-17T12:24:53;2.63;;;1.60;;
13204;SDS011;6667;52.634;9.226;2023-08-17T12:27:21;3.72;;;2.10;;
13204;SDS011;6667;52.634;9.226;2023-08-17T12:29:49;2.00;;;1.60;;
13204;SDS011;6667;52.634;9.226;2023-08-17T12:32:17;2.90;;;1.55;;
13204;SDS011;6667;52.634;9.226;2023-08-17T12:34:44;1.98;;;1.50;;
13204;SDS011;6667;52.634;9.226;2023-08-17T12:37:17;1.75;;;1.25;;
13204;SDS011;6667;52.634;9.226;2023-08-17T12:39:46;1.60;;;1.50;;
13204;SDS011;6667;52.634;9.226;2023-08-17T12:42:13;2.38;;;1.73;;
13204;SDS011;6667;52.634;9.226;2023-08-17T12:44:40;2.13;;;1.48;;
13204;SDS011;6667;52.634;9.226;2023-08-17T12:47:07;3.15;;;1.40;;
13204;SDS011;6667;52.634;9.226;2023-08-17T12:49:35;1.98;;;1.88;;
13204;SDS011;6667;52.634;9.226;2023-08-17T12:52:02;1.70;;;1.60;;
13204;SDS011;6667;52.634;9.226;2023-08-17T12:54:30;2.75;;;1.88;;
13204;SDS011;6667;52.634;9.226;2023-08-17T12:56:57;4.55;;;1.60;;
13204;SDS011;6667;52.634;9.226;2023-08-17T12:59:24;1.60;;;1.50;;
13204;SDS011;6667;52.634;9.226;2023-08-17T13:01:51;2.13;;;1.58;;
13204;SDS011;6667;52.634;9.226;2023-08-17T13:04:18;2.25;;;1.85;;
13204;SDS011;6667;52.634;9.226;2023-08-17T13:06:44;4.22;;;2.42;;
13204;SDS011;6667;52.634;9.226;2023-08-17T13:09:12;2.67;;;1.45;;
13204;SDS011;6667;52.634;9.226;2023-08-17T13:11:42;2.40;;;1.60;;
13204;SDS011;6667;52.634;9.226;2023-08-17T13:14:08;2.47;;;1.40;;
13204;SDS011;6667;52.634;9.226;2023-08-17T13:16:35;1.42;;;1.33;;
13204;SDS011;6667;52.634;9.226;2023-08-17T13:19:02;2.13;;;1.52;;
13204;SDS011;6667;52.634;9.226;2023-08-17T13:21:29;1.50;;;1.40;;
13204;SDS011;6667;52.634;9.226;2023-08-17T13:23:56;1.50;;;1.40;;
13204;SDS011;6667;52.634;9.226;2023-08-17T13:26:22;1.58;;;1.38;;
13204;SDS011;6667;52.634;9.226;2023-08-17T13:28:50;1.15;;;1.10;;
13204;SDS011;6667;52.634;9.226;2023-08-17T13:31:17;1.20;;;1.10;;
13204;SDS011;6667;52.634;9.226;2023-08-17T13:33:44;2.13;;;1.27;;
13204;SDS011;6667;52.634;9.226;2023-08-17T13:36:11;3.38;;;1.50;;
13204;SDS011;6667;52.634;9.226;2023-08-17T13:38:37;1.88;;;1.40;;
13204;SDS011;6667;52.634;9.226;2023-08-17T13:41:04;1.80;;;1.65;;
13204;SDS011;6667;52.634;9.226;2023-08-17T13:43:31;1.35;;;1.25;;
13204;SDS011;6667;52.634;9.226;2023-08-17T13:45:59;1.40;;;1.20;;
13204;SDS011;6667;52.634;9.226;2023-08-17T13:48:26;1.17;;;1.08;;
13204;SDS011;6667;52.634;9.226;2023-08-17T13:50:52;2.50;;;1.08;;
13204;SDS011;6667;52.634;9.226;2023-08-17T13:53:19;1.40;;;1.30;;
13204;SDS011;6667;52.634;9.226;2023-08-17T13:55:46;1.30;;;1.15;;
13204;SDS011;6667;52.634;9.226;2023-08-17T13:58:12;1.38;;;0.95;;
13204;SDS011;6667;52.634;9.226;2023-08-17T14:00:40;2.63;;;1.23;;
13204;SDS011;6667;52.634;9.226;2023-08-17T14:03:08;2.03;;;1.70;;
13204;SDS011;6667;52.634;9.226;2023-08-17T14:05:35;2.45;;;1.55;;
13204;SDS011;6667;52.634;9.226;2023-08-17T14:08:02;1.55;;;1.38;;
13204;SDS011;6667;52.634;9.226;2023-08-17T14:10:29;1.17;;;1.08;;
13204;SDS011;6667;52.634;9.226;2023-08-17T14:12:56;3.73;;;1.40;;
13204;SDS011;6667;52.634;9.226;2023-08-17T14:15:22;1.42;;;1.30;;
13204;SDS011;6667;52.634;9.226;2023-08-17T14:17:49;1.48;;;1.38;;
13204;SDS011;6667;52.634;9.226;2023-08-17T14:20:17;3.25;;;1.20;;
13204;SDS011;6667;52.634;9.226;2023-08-17T14:22:44;1.52;;;1.38;;
13204;SDS011;6667;52.634;9.226;2023-08-17T14:25:10;1.38;;;1.27;;
13204;SDS011;6667;52.634;9.226;2023-08-17T14:27:37;3.60;;;1.38;;
13204;SDS011;6667;52.634;9.226;2023-08-17T14:30:04;4.13;;;1.83;;
13204;SDS011;6667;52.634;9.226;2023-08-17T14:32:32;2.80;;;2.23;;
13204;SDS011;6667;52.634;9.226;2023-08-17T14:34:59;4.07;;;1.95;;
13204;SDS011;6667;52.634;9.226;2023-08-17T14:37:27;3.25;;;1.10;;
13204;SDS011;6667;52.634;9.226;2023-08-17T14:39:53;1.13;;;1.13;;
13204;SDS011;6667;52.634;9.226;2023-08-17T14:42:20;2.38;;;1.30;;
13204;SDS011;6667;52.634;9.226;2023-08-17T14:44:48;1.48;;;1.38;;
13204;SDS011;6667;52.634;9.226;2023-08-17T14:47:14;4.55;;;1.20;;
13204;SDS011;6667;52.634;9.226;2023-08-17T14:49:41;3.60;;;1.40;;
13204;SDS011;6667;52.634;9.226;2023-08-17T14:52:08;2.35;;;1.17;;
13204;SDS011;6667;52.634;9.226;2023-08-17T14:54:36;3.28;;;1.60;;
13204;SDS011;6667;52.634;9.226;2023-08-17T14:57:03;1.73;;;1.00;;
13204;SDS011;6667;52.634;9.226;2023-08-17T14:59:30;2.38;;;1.20;;
13204;SDS011;6667;52.634;9.226;2023-08-17T15:01:56;1.30;;;1.20;;
13204;SDS011;6667;52.634;9.226;2023-08-17T15:04:23;2.00;;;1.40;;
13204;SDS011;6667;52.634;9.226;2023-08-17T15:06:50;1.65;;;1.42;;
13204;SDS011;6667;52.634;9.226;2023-08-17T15:09:17;1.50;;;1.40;;
13204;SDS011;6667;52.634;9.226;2023-08-17T15:11:45;1.90;;;1.80;;
13204;SDS011;6667;52.634;9.226;2023-08-17T15:14:11;1.60;;;1.50;;
13204;SDS011;6667;52.634;9.226;2023-08-17T15:16:38;1.83;;;1.27;;
13204;SDS011;6667;52.634;9.226;2023-08-17T15:19:05;2.30;;;1.50;;
13204;SDS011;6667;52.634;9.226;2023-08-17T15:21:31;2.17;;;1.40;;
13204;SDS011;6667;52.634;9.226;2023-08-17T15:23:58;3.80;;;1.63;;
13204;SDS011;6667;52.634;9.226;2023-08-17T15:26:25;3.72;;;1.70;;
13204;SDS011;6667;52.634;9.226;2023-08-17T15:28:53;2.75;;;1.77;;
13204;SDS011;6667;52.634;9.226;2023-08-17T15:31:20;4.03;;;1.73;;
13204;SDS011;6667;52.634;9.226;2023-08-17T15:33:46;2.80;;;1.67;;
13204;SDS011;6667;52.634;9.226;2023-08-17T15:36:13;2.58;;;1.60;;
13204;SDS011;6667;52.634;9.226;2023-08-17T15:38:43;3.28;;;1.73;;
13204;SDS011;6667;52.634;9.226;2023-08-17T15:41:10;2.20;;;1.85;;
13204;SDS011;6667;52.634;9.226;2023-08-17T15:43:36;3.35;;;1.75;;
13204;SDS011;6667;52.634;9.226;2023-08-17T15:46:04;3.35;;;1.80;;
13204;SDS011;6667;52.634;9.226;2023-08-17T15:48:31;1.88;;;1.48;;
13204;SDS011;6667;52.634;9.226;2023-08-17T15:50:58;3.65;;;2.00;;
13204;SDS011;6667;52.634;9.226;2023-08-17T15:53:25;4.00;;;2.30;;
13204;SDS011;6667;52.634;9.226;2023-08-17T15:55:51;3.97;;;2.30;;
13204;SDS011;6667;52.634;9.226;2023-08-17T15:58:18;2.67;;;2.10;;
13204;SDS011;6667;52.634;9.226;2023-08-17T16:00:45;1.98;;;1.80;;
13204;SDS011;6667;52.634;9.226;2023-08-17T16:03:13;2.83;;;1.90;;
13204;SDS011;6667;52.634;9.226;2023-08-17T16:05:40;2.67;;;1.67;;
13204;SDS011;6667;52.634;9.226;2023-08-17T16:08:07;2.13;;;1.65;;
13204;SDS011;6667;52.634;9.226;2023-08-17T16:10:34;2.63;;;1.73;;
13204;SDS011;6667;52.634;9.226;2023-08-17T16:13:01;2.30;;;1.50;;
13204;SDS011;6667;52.634;9.226;2023-08-17T16:15:28;1.67;;;1.58;;
13204;SDS011;6667;52.634;9.226;2023-08-17T16:17:55;1.73;;;1.55;;
13204;SDS011;6667;52.634;9.226;2023-08-17T16:20:23;3.28;;;1.35;;
13204;SDS011;6667;52.634;9.226;2023-08-17T16:22:54;3.05;;;1.73;;
13204;SDS011;6667;52.634;9.226;2023-08-17T16:25:21;2.65;;;1.60;;
13204;SDS011;6667;52.634;9.226;2023-08-17T16:27:48;3.22;;;1.70;;
13204;SDS011;6667;52.634;9.226;2023-08-17T16:30:20;3.15;;;1.40;;
13204;SDS011;6667;52.634;9.226;2023-08-17T16:32:47;2.70;;;1.83;;
13204;SDS011;6667;52.634;9.226;2023-08-17T16:38:18;2.30;;;1.80;;
13204;SDS011;6667;52.634;9.226;2023-08-17T16:40:45;2.45;;;1.52;;
13204;SDS011;6667;52.634;9.226;2023-08-17T16:43:18;2.20;;;2.00;;
13204;SDS011;6667;52.634;9.226;2023-08-17T16:45:46;1.65;;;1.55;;
13204;SDS011;6667;52.634;9.226;2023-08-17T16:48:13;3.50;;;1.60;;
13204;SDS011;6667;52.634;9.226;2023-08-17T16:50:40;2.03;;;1.80;;
13204;SDS011;6667;52.634;9.226;2023-08-17T16:53:13;2.30;;;2.00;;
13204;SDS011;6667;52.634;9.226;2023-08-17T16:55:42;2.58;;;1.83;;
13204;SDS011;6667;52.634;9.226;2023-08-17T16:58:09;2.00;;;1.85;;
13204;SDS011;6667;52.634;9.226;2023-08-17T17:00:35;2.30;;;2.10;;
13204;SDS011;6667;52.634;9.226;2023-08-17T17:03:02;3.30;;;1.90;;
13204;SDS011;6667;52.634;9.226;2023-08-17T17:05:29;2.20;;;1.83;;
13204;SDS011;6667;52.634;9.226;2023-08-17T17:07:56;2.30;;;2.10;;
13204;SDS011;6667;52.634;9.226;2023-08-17T17:10:22;4.03;;;1.90;;
13204;SDS011;6667;52.634;9.226;2023-08-17T17:12:57;2.03;;;1.75;;
13204;SDS011;6667;52.634;9.226;2023-08-17T17:15:25;2.80;;;2.20;;
13204;SDS011;6667;52.634;9.226;2023-08-17T17:17:52;4.78;;;2.47;;
13204;SDS011;6667;52.634;9.226;2023-08-17T17:20:18;2.20;;;2.00;;
13204;SDS011;6667;52.634;9.226;2023-08-17T17:22:45;4.38;;;2.33;;
13204;SDS011;6667;52.634;9.226;2023-08-17T17:25:12;6.17;;;2.60;;
13204;SDS011;6667;52.634;9.226;2023-08-17T17:27:39;2.45;;;2.25;;
13204;SDS011;6667;52.634;9.226;2023-08-17T17:30:08;3.67;;;2.60;;
13204;SDS011;6667;52.634;9.226;2023-08-17T17:32:35;2.60;;;2.35;;
13204;SDS011;6667;52.634;9.226;2023-08-17T17:35:02;2.47;;;2.28;;
13204;SDS011;6667;52.634;9.226;2023-08-17T17:37:29;2.17;;;1.97;;
13204;SDS011;6667;52.634;9.226;2023-08-17T17:39:56;2.92;;;2.38;;
13204;SDS011;6667;52.634;9.226;2023-08-17T17:42:23;3.67;;;2.10;;
13204;SDS011;6667;52.634;9.226;2023-08-17T17:44:50;2.90;;;2.03;;
13204;SDS011;6667;52.634;9.226;2023-08-17T17:47:18;2.60;;;2.30;;
13204;SDS011;6667;52.634;9.226;2023-08-17T17:49:44;2.88;;;2.13;;
13204;SDS011;6667;52.634;9.226;2023-08-17T17:52:11;5.00;;;2.30;;
13204;SDS011;6667;52.634;9.226;2023-08-17T17:54:38;7.10;;;2.50;;
13204;SDS011;6667;52.634;9.226;2023-08-17T17:57:05;3.20;;;2.35;;
13204;SDS011;6667;52.634;9.226;2023-08-17T17:59:32;2.75;;;1.85;;
13204;SDS011;6667;52.634;9.226;2023-08-17T18:01:59;1.83;;;1.73;;
13204;SDS011;6667;52.634;9.226;2023-08-17T18:04:27;2.47;;;2.28;;
13204;SDS011;6667;52.634;9.226;2023-08-17T18:06:54;2.53;;;2.00;;
13204;SDS011;6667;52.634;9.226;2023-08-17T18:09:20;3.75;;;2.13;;
13204;SDS011;6667;52.634;9.226;2023-08-17T18:11:47;2.97;;;2.07;;
13204;SDS011;6667;52.634;9.226;2023-08-17T18:14:14;5.78;;;2.30;;
13204;SDS011;6667;52.634;9.226;2023-08-17T18:16:43;3.45;;;2.38;;
13204;SDS011;6667;52.634;9.226;2023-08-17T18:19:10;11.35;;;2.20;;
13204;SDS011;6667;52.634;9.226;2023-08-17T18:21:38;2.60;;;2.13;;
13204;SDS011;6667;52.634;9.226;2023-08-17T18:24:05;3.15;;;2.38;;
13204;SDS011;6667;52.634;9.226;2023-08-17T18:26:32;2.13;;;1.90;;
13204;SDS011;6667;52.634;9.226;2023-08-17T18:28:59;2.78;;;2.05;;
13204;SDS011;6667;52.634;9.226;2023-08-17T18:31:26;4.63;;;2.20;;
13204;SDS011;6667;52.634;9.226;2023-08-17T18:33:54;3.50;;;1.83;;
13204;SDS011;6667;52.634;9.226;2023-08-17T18:36:21;3.33;;;2.45;;
13204;SDS011;6667;52.634;9.226;2023-08-17T18:38:49;3.28;;;2.45;;
13204;SDS011;6667;52.634;9.226;2023-08-17T18:41:16;7.80;;;2.65;;
13204;SDS011;6667;52.634;9.226;2023-08-17T18:43:43;4.30;;;2.60;;
13204;SDS011;6667;52.634;9.226;2023-08-17T18:46:19;2.38;;;2.00;;
13204;SDS011;6667;52.634;9.226;2023-08-17T18:48:46;4.43;;;1.75;;
13204;SDS011;6667;52.634;9.226;2023-08-17T18:51:13;2.40;;;2.00;;
13204;SDS011;6667;52.634;9.226;2023-08-17T18:53:39;5.05;;;2.20;;
13204;SDS011;6667;52.634;9.226;2023-08-17T18:56:08;2.30;;;1.95;;
13204;SDS011;6667;52.634;9.226;2023-08-17T18:58:35;4.57;;;2.38;;
13204;SDS011;6667;52.634;9.226;2023-08-17T19:01:03;5.33;;;2.13;;
13204;SDS011;6667;52.634;9.226;2023-08-17T19:03:29;3.67;;;2.05;;
13204;SDS011;6667;52.634;9.226;2023-08-17T19:05:56;4.63;;;2.60;;
13204;SDS011;6667;52.634;9.226;2023-08-17T19:08:23;2.85;;;2.35;;
13204;SDS011;6667;52.634;9.226;2023-08-17T19:10:49;3.80;;;2.30;;
13204;SDS011;6667;52.634;9.226;2023-08-17T19:13:17;4.95;;;2.85;;
13204;SDS011;6667;52.634;9.226;2023-08-17T19:15:44;3.90;;;2.87;;
13204;SDS011;6667;52.634;9.226;2023-08-17T19:18:11;4.83;;;3.10;;
13204;SDS011;6667;52.634;9.226;2023-08-17T19:20:38;4.57;;;3.27;;
13204;SDS011;6667;52.634;9.226;2023-08-17T19:23:04;5.70;;;3.50;;
13204;SDS011;6667;52.634;9.226;2023-08-17T19:25:31;5.40;;;4.20;;
13204;SDS011;6667;52.634;9.226;2023-08-17T19:27:58;7.17;;;4.80;;
13204;SDS011;6667;52.634;9.226;2023-08-17T19:30:26;7.50;;;3.58;;
13204;SDS011;6667;52.634;9.226;2023-08-17T19:32:56;5.72;;;3.00;;
13204;SDS011;6667;52.634;9.226;2023-08-17T19:35:23;3.67;;;3.15;;
13204;SDS011;6667;52.634;9.226;2023-08-17T19:37:51;2.65;;;2.45;;
13204;SDS011;6667;52.634;9.226;2023-08-17T19:40:19;4.80;;;2.80;;
13204;SDS011;6667;52.634;9.226;2023-08-17T19:42:46;6.70;;;3.00;;
13204;SDS011;6667;52.634;9.226;2023-08-17T19:45:13;7.45;;;4.13;;
13204;SDS011;6667;52.634;9.226;2023-08-17T19:47:41;10.73;;;5.53;;
13204;SDS011;6667;52.634;9.226;2023-08-17T19:50:09;6.35;;;3.85;;
13204;SDS011;6667;52.634;9.226;2023-08-17T19:52:36;5.13;;;3.67;;
13204;SDS011;6667;52.634;9.226;2023-08-17T19:55:03;4.50;;;3.50;;
13204;SDS011;6667;52.634;9.226;2023-08-17T19:57:30;3.30;;;3.00;;
13204;SDS011;6667;52.634;9.226;2023-08-17T19:59:57;4.25;;;2.03;;
13204;SDS011;6667;52.634;9.226;2023-08-17T20:02:24;6.53;;;2.67;;
13204;SDS011;6667;52.634;9.226;2023-08-17T20:04:52;3.35;;;2.08;;
13204;SDS011;6667;52.634;9.226;2023-08-17T20:07:18;3.77;;;2.47;;
13204;SDS011;6667;52.634;9.226;2023-08-17T20:09:45;4.83;;;2.70;;
13204;SDS011;6667;52.634;9.226;2023-08-17T20:12:12;9.07;;;2.87;;
13204;SDS011;6667;52.634;9.226;2023-08-17T20:14:38;5.47;;;2.20;;
13204;SDS011;6667;52.634;9.226;2023-08-17T20:17:05;2.40;;;2.20;;
13204;SDS011;6667;52.634;9.226;2023-08-17T20:19:32;5.00;;;2.38;;
13204;SDS011;6667;52.634;9.226;2023-08-17T20:22:00;4.83;;;2.23;;
13204;SDS011;6667;52.634;9.226;2023-08-17T20:24:27;5.90;;;2.33;;
13204;SDS011;6667;52.634;9.226;2023-08-17T20:26:54;3.07;;;2.17;;
13204;SDS011;6667;52.634;9.226;2023-08-17T20:29:20;5.53;;;2.20;;
13204;SDS011;6667;52.634;9.226;2023-08-17T20:31:48;5.63;;;2.23;;
13204;SDS011;6667;52.634;9.226;2023-08-17T20:34:15;5.27;;;2.47;;
13204;SDS011;6667;52.634;9.226;2023-08-17T20:36:41;3.53;;;2.50;;
13204;SDS011;6667;52.634;9.226;2023-08-17T20:39:10;3.92;;;2.40;;
13204;SDS011;6667;52.634;9.226;2023-08-17T20:41:37;3.90;;;2.27;;
13204;SDS011;6667;52.634;9.226;2023-08-17T20:44:04;4.20;;;2.10;;
13204;SDS011;6667;52.634;9.226;2023-08-17T20:46:31;2.83;;;2.13;;
13204;SDS011;6667;52.634;9.226;2023-08-17T20:48:58;5.37;;;1.93;;
13204;SDS011;6667;52.634;9.226;2023-08-17T20:51:25;3.60;;;2.80;;
13204;SDS011;6667;52.634;9.226;2023-08-17T20:53:52;5.30;;;2.47;;
13204;SDS011;6667;52.634;9.226;2023-08-17T20:56:21;4.88;;;2.28;;
13204;SDS011;6667;52.634;9.226;2023-08-17T20:58:47;7.03;;;2.75;;
13204;SDS011;6667;52.634;9.226;2023-08-17T21:01:14;4.23;;;2.50;;
13204;SDS011;6667;52.634;9.226;2023-08-17T21:03:43;4.22;;;2.17;;
13204;SDS011;6667;52.634;9.226;2023-08-17T21:06:11;4.35;;;2.40;;
13204;SDS011;6667;52.634;9.226;2023-08-17T21:08:38;5.77;;;2.80;;
13204;SDS011;6667;52.634;9.226;2023-08-17T21:11:05;7.30;;;2.53;;
13204;SDS011;6667;52.634;9.226;2023-08-17T21:13:33;6.15;;;2.50;;
13204;SDS011;6667;52.634;9.226;2023-08-17T21:16:02;3.53;;;2.33;;
13204;SDS011;6667;52.634;9.226;2023-08-17T21:18:29;3.42;;;2.38;;
13204;SDS011;6667;52.634;9.226;2023-08-17T21:20:56;3.17;;;2.87;;
13204;SDS011;6667;52.634;9.226;2023-08-17T21:23:23;3.60;;;2.07;;
13204;SDS011;6667;52.634;9.226;2023-08-17T21:25:50;3.87;;;2.80;;
13204;SDS011;6667;52.634;9.226;2023-08-17T21:28:17;3.30;;;2.70;;
13204;SDS011;6667;52.634;9.226;2023-08-17T21:30:45;5.20;;;2.70;;
13204;SDS011;6667;52.634;9.226;2023-08-17T21:33:12;6.13;;;2.40;;
13204;SDS011;6667;52.634;9.226;2023-08-17T21:35:38;3.30;;;2.50;;
13204;SDS011;6667;52.634;9.226;2023-08-17T21:38:05;2.63;;;2.37;;
13204;SDS011;6667;52.634;9.226;2023-08-17T21:40:32;5.15;;;2.42;;
13204;SDS011;6667;52.634;9.226;2023-08-17T21:42:59;3.27;;;2.50;;
13204;SDS011;6667;52.634;9.226;2023-08-17T21:45:25;6.43;;;2.80;;
13204;SDS011;6667;52.634;9.226;2023-08-17T21:47:53;5.72;;;3.05;;
13204;SDS011;6667;52.634;9.226;2023-08-17T21:50:20;4.77;;;2.50;;
13204;SDS011;6667;52.634;9.226;2023-08-17T21:52:47;5.33;;;2.70;;
13204;SDS011;6667;52.634;9.226;2023-08-17T21:55:13;4.77;;;2.50;;
13204;SDS011;6667;52.634;9.226;2023-08-17T21:57:40;3.23;;;2.40;;
13204;SDS011;6667;52.634;9.226;2023-08-17T22:00:07;3.90;;;2.47;;
13204;SDS011;6667;52.634;9.226;2023-08-17T22:02:34;6.10;;;2.70;;
13204;SDS011;6667;52.634;9.226;2023-08-17T22:05:02;4.33;;;2.13;;
13204;SDS011;6667;52.634;9.226;2023-08-17T22:07:29;6.33;;;3.03;;
13204;SDS011;6667;52.634;9.226;2023-08-17T22:09:56;5.03;;;2.30;;
13204;SDS011;6667;52.634;9.226;2023-08-17T22:12:23;3.78;;;2.50;;
13204;SDS011;6667;52.634;9.226;2023-08-17T22:14:49;4.30;;;2.03;;
13204;SDS011;6667;52.634;9.226;2023-08-17T22:17:16;3.40;;;2.10;;
13204;SDS011;6667;52.634;9.226;2023-08-17T22:19:43;6.63;;;2.00;;
13204;SDS011;6667;52.634;9.226;2023-08-17T22:22:11;2.30;;;2.00;;
13204;SDS011;6667;52.634;9.226;2023-08-17T22:24:38;2.83;;;2.20;;
13204;SDS011;6667;52.634;9.226;2023-08-17T22:27:07;3.07;;;2.03;;
13204;SDS011;6667;52.634;9.226;2023-08-17T22:29:33;3.90;;;2.00;;
13204;SDS011;6667;52.634;9.226;2023-08-17T22:32:00;3.00;;;2.00;;
13204;SDS011;6667;52.634;9.226;2023-08-17T22:34:27;5.03;;;2.00;;
13204;SDS011;6667;52.634;9.226;2023-08-17T22:36:53;4.67;;;2.37;;
